sensor_id;sensor_type;location;lat;lon;timestamp;P1;durP1;ratioP1;P2;durP2;ratioP2
1122;SDS011;548;48.778;9.252;2023-06-22T04:26:31;24.63;;;23.13;;
1122;SDS011;548;48.778;9.252;2023-06-22T04:29:01;23.77;;;22.17;;
1122;SDS011;548;48.778;9.252;2023-06-22T04:31:30;23.60;;;22.30;;
1122;SDS011;548;48.778;9.252;2023-06-22T04:34:01;24.97;;;23.57;;
1122;SDS011;548;48.778;9.252;2023-06-22T04:36:31;24.23;;;22.83;;
1122;SDS011;548;48.778;9.252;2023-06-22T04:39:02;22.90;;;21.60;;
1122;SDS011;548;48.778;9.252;2023-06-22T04:41:31;23.70;;;22.00;;
1122;SDS011;548;48.778;9.252;2023-06-22T04:44:07;24.13;;;21.90;;
1122;SDS011;548;48.778;9.252;2023-06-22T04:46:34;22.50;;;21.20;;
1122;SDS011;548;48.778;9.252;2023-06-22T04:49:03;24.23;;;22.63;;
1122;SDS011;548;48.778;9.252;2023-06-22T04:51:36;26.30;;;24.20;;
1122;SDS011;548;48.778;9.252;2023-06-22T04:54:04;25.27;;;23.57;;
1122;SDS011;548;48.778;9.252;2023-06-22T04:56:32;24.90;;;23.20;;
1122;SDS011;548;48.778;9.252;2023-06-22T04:58:59;23.10;;;21.70;;
1122;SDS011;548;48.778;9.252;2023-06-22T05:01:26;22.90;;;21.47;;
1122;SDS011;548;48.778;9.252;2023-06-22T05:03:52;23.90;;;22.13;;
1122;SDS011;548;48.778;9.252;2023-06-22T05:06:21;23.97;;;22.27;;
1122;SDS011;548;48.778;9.252;2023-06-22T05:08:50;25.47;;;23.87;;
1122;SDS011;548;48.778;9.252;2023-06-22T05:11:17;24.03;;;22.43;;
1122;SDS011;548;48.778;9.252;2023-06-22T05:13:45;23.40;;;22.00;;
1122;SDS011;548;48.778;9.252;2023-06-22T05:16:12;24.80;;;22.87;;
1122;SDS011;548;48.778;9.252;2023-06-22T05:18:38;22.70;;;21.37;;
1122;SDS011;548;48.778;9.252;2023-06-22T05:21:06;24.13;;;22.43;;
1122;SDS011;548;48.778;9.252;2023-06-22T05:23:33;24.53;;;22.77;;
1122;SDS011;548;48.778;9.252;2023-06-22T05:26:00;21.93;;;20.43;;
1122;SDS011;548;48.778;9.252;2023-06-22T05:28:27;22.07;;;20.47;;
1122;SDS011;548;48.778;9.252;2023-06-22T05:30:55;21.77;;;20.27;;
1122;SDS011;548;48.778;9.252;2023-06-22T05:33:22;21.60;;;20.10;;
1122;SDS011;548;48.778;9.252;2023-06-22T05:35:48;22.80;;;21.20;;
1122;SDS011;548;48.778;9.252;2023-06-22T05:38:15;22.23;;;20.83;;
1122;SDS011;548;48.778;9.252;2023-06-22T05:40:42;22.47;;;21.10;;
1122;SDS011;548;48.778;9.252;2023-06-22T05:43:08;20.50;;;19.30;;
1122;SDS011;548;48.778;9.252;2023-06-22T05:45:35;20.67;;;19.47;;
1122;SDS011;548;48.778;9.252;2023-06-22T05:48:03;19.20;;;18.17;;
1122;SDS011;548;48.778;9.252;2023-06-22T05:50:31;21.80;;;20.40;;
1122;SDS011;548;48.778;9.252;2023-06-22T05:52:57;20.60;;;19.50;;
1122;SDS011;548;48.778;9.252;2023-06-22T05:55:24;20.20;;;19.00;;
1122;SDS011;548;48.778;9.252;2023-06-22T05:57:51;20.60;;;19.40;;
1122;SDS011;548;48.778;9.252;2023-06-22T06:00:18;21.20;;;20.10;;
1122;SDS011;548;48.778;9.252;2023-06-22T06:02:45;21.00;;;19.50;;
1122;SDS011;548;48.778;9.252;2023-06-22T06:05:13;19.03;;;17.90;;
1122;SDS011;548;48.778;9.252;2023-06-22T06:07:40;20.33;;;18.97;;
1122;SDS011;548;48.778;9.252;2023-06-22T06:10:07;20.10;;;19.00;;
1122;SDS011;548;48.778;9.252;2023-06-22T06:12:34;19.83;;;18.83;;
1122;SDS011;548;48.778;9.252;2023-06-22T06:15:01;19.60;;;18.50;;
1122;SDS011;548;48.778;9.252;2023-06-22T06:17:28;20.77;;;19.63;;
1122;SDS011;548;48.778;9.252;2023-06-22T06:19:55;19.97;;;18.73;;
1122;SDS011;548;48.778;9.252;2023-06-22T06:22:23;19.90;;;19.00;;
1122;SDS011;548;48.778;9.252;2023-06-22T06:24:49;19.20;;;18.20;;
1122;SDS011;548;48.778;9.252;2023-06-22T06:27:16;20.30;;;19.30;;
1122;SDS011;548;48.778;9.252;2023-06-22T06:29:44;18.87;;;17.97;;
1122;SDS011;548;48.778;9.252;2023-06-22T06:32:13;19.90;;;18.87;;
1122;SDS011;548;48.778;9.252;2023-06-22T06:34:40;19.40;;;18.30;;
1122;SDS011;548;48.778;9.252;2023-06-22T06:37:08;20.07;;;19.07;;
1122;SDS011;548;48.778;9.252;2023-06-22T06:39:36;20.90;;;19.53;;
1122;SDS011;548;48.778;9.252;2023-06-22T06:42:03;20.50;;;19.40;;
1122;SDS011;548;48.778;9.252;2023-06-22T06:44:30;19.30;;;18.20;;
1122;SDS011;548;48.778;9.252;2023-06-22T06:46:57;20.67;;;19.40;;
1122;SDS011;548;48.778;9.252;2023-06-22T06:49:24;20.13;;;19.03;;
1122;SDS011;548;48.778;9.252;2023-06-22T06:51:50;20.23;;;19.23;;
1122;SDS011;548;48.778;9.252;2023-06-22T06:54:17;20.27;;;19.23;;
1122;SDS011;548;48.778;9.252;2023-06-22T06:56:47;20.17;;;19.17;;
1122;SDS011;548;48.778;9.252;2023-06-22T06:59:14;20.10;;;19.07;;
1122;SDS011;548;48.778;9.252;2023-06-22T07:01:41;19.37;;;18.37;;
1122;SDS011;548;48.778;9.252;2023-06-22T07:04:09;19.37;;;18.47;;
1122;SDS011;548;48.778;9.252;2023-06-22T07:06:36;19.83;;;18.73;;
1122;SDS011;548;48.778;9.252;2023-06-22T07:09:04;21.17;;;20.07;;
1122;SDS011;548;48.778;9.252;2023-06-22T07:11:30;20.23;;;18.83;;
1122;SDS011;548;48.778;9.252;2023-06-22T07:13:58;20.57;;;19.53;;
1122;SDS011;548;48.778;9.252;2023-06-22T07:16:26;19.27;;;18.37;;
1122;SDS011;548;48.778;9.252;2023-06-22T07:18:53;20.73;;;19.63;;
1122;SDS011;548;48.778;9.252;2023-06-22T07:21:20;19.20;;;18.13;;
1122;SDS011;548;48.778;9.252;2023-06-22T07:23:47;20.23;;;18.90;;
1122;SDS011;548;48.778;9.252;2023-06-22T07:26:13;19.53;;;18.60;;
1122;SDS011;548;48.778;9.252;2023-06-22T07:28:41;18.90;;;18.00;;
1122;SDS011;548;48.778;9.252;2023-06-22T07:31:09;19.83;;;18.83;;
1122;SDS011;548;48.778;9.252;2023-06-22T07:33:36;21.00;;;19.80;;
1122;SDS011;548;48.778;9.252;2023-06-22T07:36:03;21.03;;;20.03;;
1122;SDS011;548;48.778;9.252;2023-06-22T07:38:32;19.43;;;18.33;;
1122;SDS011;548;48.778;9.252;2023-06-22T07:40:59;20.30;;;19.50;;
1122;SDS011;548;48.778;9.252;2023-06-22T07:43:27;20.37;;;19.47;;
1122;SDS011;548;48.778;9.252;2023-06-22T07:45:55;20.00;;;19.10;;
1122;SDS011;548;48.778;9.252;2023-06-22T07:48:23;20.63;;;19.43;;
1122;SDS011;548;48.778;9.252;2023-06-22T07:50:49;20.43;;;19.40;;
1122;SDS011;548;48.778;9.252;2023-06-22T07:53:18;21.00;;;19.70;;
1122;SDS011;548;48.778;9.252;2023-06-22T07:55:44;20.03;;;19.13;;
1122;SDS011;548;48.778;9.252;2023-06-22T07:58:11;21.00;;;19.90;;
1122;SDS011;548;48.778;9.252;2023-06-22T08:00:38;20.77;;;19.47;;
1122;SDS011;548;48.778;9.252;2023-06-22T08:03:10;21.60;;;20.33;;
1122;SDS011;548;48.778;9.252;2023-06-22T08:06:13;21.77;;;20.57;;
1122;SDS011;548;48.778;9.252;2023-06-22T08:08:39;21.67;;;20.53;;
1122;SDS011;548;48.778;9.252;2023-06-22T08:11:07;22.50;;;21.10;;
1122;SDS011;548;48.778;9.252;2023-06-22T08:13:34;21.13;;;19.73;;
1122;SDS011;548;48.778;9.252;2023-06-22T08:16:01;21.23;;;20.13;;
1122;SDS011;548;48.778;9.252;2023-06-22T08:18:27;20.87;;;19.70;;
1122;SDS011;548;48.778;9.252;2023-06-22T08:20:54;20.43;;;19.43;;
1122;SDS011;548;48.778;9.252;2023-06-22T08:23:22;21.73;;;20.43;;
1122;SDS011;548;48.778;9.252;2023-06-22T08:25:49;20.10;;;19.10;;
1122;SDS011;548;48.778;9.252;2023-06-22T08:28:16;22.17;;;20.37;;
1122;SDS011;548;48.778;9.252;2023-06-22T08:30:43;21.50;;;20.40;;
1122;SDS011;548;48.778;9.252;2023-06-22T08:33:09;21.73;;;18.77;;
1122;SDS011;548;48.778;9.252;2023-06-22T08:35:37;20.43;;;19.30;;
1122;SDS011;548;48.778;9.252;2023-06-22T08:38:04;23.33;;;21.93;;
1122;SDS011;548;48.778;9.252;2023-06-22T08:40:32;23.07;;;21.73;;
1122;SDS011;548;48.778;9.252;2023-06-22T08:42:59;22.97;;;21.57;;
1122;SDS011;548;48.778;9.252;2023-06-22T08:45:25;23.43;;;22.07;;
1122;SDS011;548;48.778;9.252;2023-06-22T08:47:52;22.93;;;21.30;;
1122;SDS011;548;48.778;9.252;2023-06-22T08:50:19;21.83;;;20.63;;
1122;SDS011;548;48.778;9.252;2023-06-22T08:52:45;22.17;;;20.90;;
1122;SDS011;548;48.778;9.252;2023-06-22T08:55:12;23.00;;;21.53;;
1122;SDS011;548;48.778;9.252;2023-06-22T08:57:41;21.20;;;20.00;;
1122;SDS011;548;48.778;9.252;2023-06-22T09:00:09;22.03;;;20.60;;
1122;SDS011;548;48.778;9.252;2023-06-22T09:02:44;23.57;;;22.23;;
1122;SDS011;548;48.778;9.252;2023-06-22T09:05:12;20.87;;;19.20;;
1122;SDS011;548;48.778;9.252;2023-06-22T09:07:38;22.10;;;20.97;;
1122;SDS011;548;48.778;9.252;2023-06-22T09:10:06;22.10;;;20.40;;
1122;SDS011;548;48.778;9.252;2023-06-22T09:12:33;22.10;;;20.70;;
1122;SDS011;548;48.778;9.252;2023-06-22T09:15:04;21.87;;;20.63;;
1122;SDS011;548;48.778;9.252;2023-06-22T09:17:32;22.90;;;21.37;;
1122;SDS011;548;48.778;9.252;2023-06-22T09:20:00;23.67;;;22.27;;
1122;SDS011;548;48.778;9.252;2023-06-22T09:22:27;21.57;;;20.37;;
1122;SDS011;548;48.778;9.252;2023-06-22T09:24:54;23.67;;;21.87;;
1122;SDS011;548;48.778;9.252;2023-06-22T09:27:21;23.17;;;21.63;;
1122;SDS011;548;48.778;9.252;2023-06-22T09:29:48;21.43;;;20.20;;
1122;SDS011;548;48.778;9.252;2023-06-22T09:32:16;22.73;;;21.10;;
1122;SDS011;548;48.778;9.252;2023-06-22T09:34:43;21.50;;;20.20;;
1122;SDS011;548;48.778;9.252;2023-06-22T09:37:09;22.90;;;21.50;;
1122;SDS011;548;48.778;9.252;2023-06-22T09:39:36;23.10;;;21.50;;
1122;SDS011;548;48.778;9.252;2023-06-22T09:42:03;23.17;;;21.77;;
1122;SDS011;548;48.778;9.252;2023-06-22T09:44:31;23.17;;;22.10;;
1122;SDS011;548;48.778;9.252;2023-06-22T09:46:58;21.80;;;20.70;;
1122;SDS011;548;48.778;9.252;2023-06-22T09:49:26;22.73;;;21.43;;
1122;SDS011;548;48.778;9.252;2023-06-22T09:51:52;23.20;;;21.93;;
1122;SDS011;548;48.778;9.252;2023-06-22T09:54:19;22.90;;;21.10;;
1122;SDS011;548;48.778;9.252;2023-06-22T09:56:46;22.90;;;21.57;;
1122;SDS011;548;48.778;9.252;2023-06-22T09:59:12;22.67;;;21.37;;
1122;SDS011;548;48.778;9.252;2023-06-22T10:01:39;22.70;;;21.20;;
1122;SDS011;548;48.778;9.252;2023-06-22T10:04:06;22.70;;;21.40;;
1122;SDS011;548;48.778;9.252;2023-06-22T10:06:34;23.63;;;22.20;;
1122;SDS011;548;48.778;9.252;2023-06-22T10:09:00;25.13;;;23.67;;
1122;SDS011;548;48.778;9.252;2023-06-22T10:11:27;23.17;;;21.60;;
1122;SDS011;548;48.778;9.252;2023-06-22T10:13:55;25.07;;;23.20;;
1122;SDS011;548;48.778;9.252;2023-06-22T10:16:23;21.90;;;20.10;;
1122;SDS011;548;48.778;9.252;2023-06-22T10:18:56;23.77;;;22.00;;
1122;SDS011;548;48.778;9.252;2023-06-22T10:21:22;23.90;;;22.40;;
1122;SDS011;548;48.778;9.252;2023-06-22T10:23:50;23.07;;;21.53;;
1122;SDS011;548;48.778;9.252;2023-06-22T10:26:17;23.00;;;21.80;;
1122;SDS011;548;48.778;9.252;2023-06-22T10:28:44;21.60;;;20.20;;
1122;SDS011;548;48.778;9.252;2023-06-22T10:31:10;22.80;;;21.20;;
1122;SDS011;548;48.778;9.252;2023-06-22T10:33:37;23.10;;;21.40;;
1122;SDS011;548;48.778;9.252;2023-06-22T10:36:06;23.27;;;22.00;;
1122;SDS011;548;48.778;9.252;2023-06-22T10:38:33;22.60;;;20.90;;
1122;SDS011;548;48.778;9.252;2023-06-22T10:41:01;24.10;;;22.50;;
1122;SDS011;548;48.778;9.252;2023-06-22T10:43:27;21.97;;;20.50;;
1122;SDS011;548;48.778;9.252;2023-06-22T10:45:54;24.03;;;22.33;;
1122;SDS011;548;48.778;9.252;2023-06-22T10:48:21;23.30;;;21.60;;
1122;SDS011;548;48.778;9.252;2023-06-22T10:50:47;20.80;;;19.57;;
1122;SDS011;548;48.778;9.252;2023-06-22T10:53:14;21.10;;;19.80;;
1122;SDS011;548;48.778;9.252;2023-06-22T10:55:41;23.33;;;21.83;;
1122;SDS011;548;48.778;9.252;2023-06-22T10:58:09;21.67;;;20.13;;
1122;SDS011;548;48.778;9.252;2023-06-22T11:00:35;21.33;;;19.53;;
1122;SDS011;548;48.778;9.252;2023-06-22T11:03:02;21.30;;;20.13;;
1122;SDS011;548;48.778;9.252;2023-06-22T11:05:29;23.10;;;21.53;;
1122;SDS011;548;48.778;9.252;2023-06-22T11:07:55;21.33;;;19.93;;
1122;SDS011;548;48.778;9.252;2023-06-22T11:10:22;24.00;;;22.00;;
1122;SDS011;548;48.778;9.252;2023-06-22T11:12:49;23.30;;;21.70;;
1122;SDS011;548;48.778;9.252;2023-06-22T11:15:17;22.47;;;20.90;;
1122;SDS011;548;48.778;9.252;2023-06-22T11:17:44;21.63;;;20.30;;
1122;SDS011;548;48.778;9.252;2023-06-22T11:20:11;21.67;;;20.17;;
1122;SDS011;548;48.778;9.252;2023-06-22T11:22:38;22.63;;;21.13;;
1122;SDS011;548;48.778;9.252;2023-06-22T11:25:05;22.27;;;20.10;;
1122;SDS011;548;48.778;9.252;2023-06-22T11:27:32;24.77;;;22.73;;
1122;SDS011;548;48.778;9.252;2023-06-22T11:29:58;23.07;;;21.63;;
1122;SDS011;548;48.778;9.252;2023-06-22T11:32:26;22.27;;;20.37;;
1122;SDS011;548;48.778;9.252;2023-06-22T11:34:53;23.10;;;20.50;;
1122;SDS011;548;48.778;9.252;2023-06-22T11:37:20;21.77;;;20.27;;
1122;SDS011;548;48.778;9.252;2023-06-22T11:39:46;21.80;;;19.57;;
1122;SDS011;548;48.778;9.252;2023-06-22T11:42:13;22.73;;;21.00;;
1122;SDS011;548;48.778;9.252;2023-06-22T11:44:40;22.43;;;20.73;;
1122;SDS011;548;48.778;9.252;2023-06-22T11:47:07;23.40;;;21.43;;
1122;SDS011;548;48.778;9.252;2023-06-22T11:49:35;22.97;;;21.33;;
1122;SDS011;548;48.778;9.252;2023-06-22T11:52:02;23.10;;;21.67;;
1122;SDS011;548;48.778;9.252;2023-06-22T11:54:29;21.40;;;20.07;;
1122;SDS011;548;48.778;9.252;2023-06-22T11:56:55;22.80;;;21.40;;
1122;SDS011;548;48.778;9.252;2023-06-22T11:59:22;23.60;;;21.70;;
1122;SDS011;548;48.778;9.252;2023-06-22T12:01:49;24.03;;;22.23;;
1122;SDS011;548;48.778;9.252;2023-06-22T12:04:16;23.63;;;22.03;;
1122;SDS011;548;48.778;9.252;2023-06-22T12:06:44;22.67;;;21.00;;
1122;SDS011;548;48.778;9.252;2023-06-22T12:09:11;22.87;;;21.13;;
1122;SDS011;548;48.778;9.252;2023-06-22T12:11:38;22.10;;;20.53;;
1122;SDS011;548;48.778;9.252;2023-06-22T12:14:05;22.27;;;20.90;;
1122;SDS011;548;48.778;9.252;2023-06-22T12:16:32;22.70;;;21.00;;
1122;SDS011;548;48.778;9.252;2023-06-22T12:18:58;24.07;;;22.17;;
1122;SDS011;548;48.778;9.252;2023-06-22T12:21:25;22.83;;;21.10;;
1122;SDS011;548;48.778;9.252;2023-06-22T12:23:53;21.33;;;20.00;;
1122;SDS011;548;48.778;9.252;2023-06-22T12:26:20;23.60;;;21.60;;
1122;SDS011;548;48.778;9.252;2023-06-22T12:28:47;21.80;;;20.40;;
1122;SDS011;548;48.778;9.252;2023-06-22T12:31:14;22.67;;;21.20;;
1122;SDS011;548;48.778;9.252;2023-06-22T12:33:41;22.40;;;21.10;;
1122;SDS011;548;48.778;9.252;2023-06-22T12:36:07;22.13;;;20.73;;
1122;SDS011;548;48.778;9.252;2023-06-22T12:38:34;21.83;;;20.30;;
1122;SDS011;548;48.778;9.252;2023-06-22T12:41:02;20.73;;;19.53;;
1122;SDS011;548;48.778;9.252;2023-06-22T12:43:29;21.50;;;20.10;;
1122;SDS011;548;48.778;9.252;2023-06-22T12:45:56;21.60;;;20.20;;
1122;SDS011;548;48.778;9.252;2023-06-22T12:48:22;21.50;;;20.00;;
1122;SDS011;548;48.778;9.252;2023-06-22T12:50:50;22.87;;;21.33;;
1122;SDS011;548;48.778;9.252;2023-06-22T12:53:16;22.70;;;21.10;;
1122;SDS011;548;48.778;9.252;2023-06-22T12:55:43;23.03;;;21.50;;
1122;SDS011;548;48.778;9.252;2023-06-22T12:58:11;21.40;;;20.10;;
1122;SDS011;548;48.778;9.252;2023-06-22T13:00:38;21.37;;;19.77;;
1122;SDS011;548;48.778;9.252;2023-06-22T13:03:05;21.40;;;19.93;;
1122;SDS011;548;48.778;9.252;2023-06-22T13:05:32;21.40;;;19.83;;
1122;SDS011;548;48.778;9.252;2023-06-22T13:07:59;22.03;;;20.47;;
1122;SDS011;548;48.778;9.252;2023-06-22T13:10:26;20.00;;;18.70;;
1122;SDS011;548;48.778;9.252;2023-06-22T13:12:53;21.10;;;19.80;;
1122;SDS011;548;48.778;9.252;2023-06-22T13:15:26;21.77;;;19.83;;
1122;SDS011;548;48.778;9.252;2023-06-22T13:17:53;20.77;;;19.67;;
1122;SDS011;548;48.778;9.252;2023-06-22T13:20:20;21.80;;;19.93;;
1122;SDS011;548;48.778;9.252;2023-06-22T13:22:47;21.40;;;20.00;;
1122;SDS011;548;48.778;9.252;2023-06-22T13:25:14;21.00;;;19.77;;
1122;SDS011;548;48.778;9.252;2023-06-22T13:27:44;22.00;;;20.43;;
1122;SDS011;548;48.778;9.252;2023-06-22T13:30:12;21.53;;;20.10;;
1122;SDS011;548;48.778;9.252;2023-06-22T13:32:40;22.03;;;20.63;;
1122;SDS011;548;48.778;9.252;2023-06-22T13:35:08;20.93;;;19.47;;
1122;SDS011;548;48.778;9.252;2023-06-22T13:37:35;20.93;;;19.00;;
1122;SDS011;548;48.778;9.252;2023-06-22T13:40:03;20.37;;;18.90;;
1122;SDS011;548;48.778;9.252;2023-06-22T13:42:31;20.87;;;19.53;;
1122;SDS011;548;48.778;9.252;2023-06-22T13:44:58;20.87;;;19.37;;
1122;SDS011;548;48.778;9.252;2023-06-22T13:47:24;20.63;;;19.23;;
1122;SDS011;548;48.778;9.252;2023-06-22T13:49:53;20.97;;;19.57;;
1122;SDS011;548;48.778;9.252;2023-06-22T13:52:20;20.90;;;19.30;;
1122;SDS011;548;48.778;9.252;2023-06-22T13:54:46;20.33;;;18.80;;
1122;SDS011;548;48.778;9.252;2023-06-22T13:57:13;20.83;;;19.10;;
1122;SDS011;548;48.778;9.252;2023-06-22T13:59:39;18.60;;;17.57;;
1122;SDS011;548;48.778;9.252;2023-06-22T14:02:06;21.00;;;19.37;;
1122;SDS011;548;48.778;9.252;2023-06-22T14:04:33;20.13;;;19.07;;
1122;SDS011;548;48.778;9.252;2023-06-22T14:07:01;21.40;;;19.80;;
1122;SDS011;548;48.778;9.252;2023-06-22T14:09:28;20.93;;;19.23;;
1122;SDS011;548;48.778;9.252;2023-06-22T14:11:54;20.57;;;19.00;;
1122;SDS011;548;48.778;9.252;2023-06-22T14:14:21;19.77;;;18.40;;
1122;SDS011;548;48.778;9.252;2023-06-22T14:16:48;21.20;;;19.90;;
1122;SDS011;548;48.778;9.252;2023-06-22T14:19:16;21.10;;;19.40;;
1122;SDS011;548;48.778;9.252;2023-06-22T14:21:43;21.23;;;19.83;;
1122;SDS011;548;48.778;9.252;2023-06-22T14:24:11;20.90;;;19.70;;
1122;SDS011;548;48.778;9.252;2023-06-22T14:26:38;19.50;;;18.50;;
1122;SDS011;548;48.778;9.252;2023-06-22T14:29:04;21.83;;;20.13;;
1122;SDS011;548;48.778;9.252;2023-06-22T14:31:31;20.70;;;19.37;;
1122;SDS011;548;48.778;9.252;2023-06-22T14:33:58;18.73;;;17.83;;
1122;SDS011;548;48.778;9.252;2023-06-22T14:36:25;19.67;;;18.20;;
1122;SDS011;548;48.778;9.252;2023-06-22T14:38:52;20.57;;;19.23;;
1122;SDS011;548;48.778;9.252;2023-06-22T14:41:20;19.87;;;18.43;;
1122;SDS011;548;48.778;9.252;2023-06-22T14:43:47;20.67;;;19.10;;
1122;SDS011;548;48.778;9.252;2023-06-22T14:46:15;21.63;;;20.00;;
1122;SDS011;548;48.778;9.252;2023-06-22T14:48:43;20.70;;;19.20;;
1122;SDS011;548;48.778;9.252;2023-06-22T14:51:10;18.97;;;17.63;;
1122;SDS011;548;48.778;9.252;2023-06-22T14:53:37;19.17;;;17.87;;
1122;SDS011;548;48.778;9.252;2023-06-22T14:56:04;19.03;;;17.83;;
1122;SDS011;548;48.778;9.252;2023-06-22T14:58:33;20.03;;;18.53;;
1122;SDS011;548;48.778;9.252;2023-06-22T15:01:00;17.27;;;16.23;;
1122;SDS011;548;48.778;9.252;2023-06-22T15:03:27;18.23;;;17.03;;
1122;SDS011;548;48.778;9.252;2023-06-22T15:05:55;17.53;;;16.30;;
1122;SDS011;548;48.778;9.252;2023-06-22T15:08:23;18.90;;;17.60;;
1122;SDS011;548;48.778;9.252;2023-06-22T15:10:50;17.10;;;16.10;;
1122;SDS011;548;48.778;9.252;2023-06-22T15:13:17;17.43;;;16.23;;
1122;SDS011;548;48.778;9.252;2023-06-22T15:15:45;18.40;;;16.90;;
1122;SDS011;548;48.778;9.252;2023-06-22T15:18:13;16.60;;;15.60;;
1122;SDS011;548;48.778;9.252;2023-06-22T15:20:39;16.40;;;15.17;;
1122;SDS011;548;48.778;9.252;2023-06-22T15:23:06;17.40;;;16.00;;
1122;SDS011;548;48.778;9.252;2023-06-22T15:25:33;16.30;;;15.20;;
1122;SDS011;548;48.778;9.252;2023-06-22T15:28:00;16.73;;;15.73;;
1122;SDS011;548;48.778;9.252;2023-06-22T15:30:27;15.53;;;14.33;;
1122;SDS011;548;48.778;9.252;2023-06-22T15:32:57;16.53;;;15.40;;
1122;SDS011;548;48.778;9.252;2023-06-22T15:35:23;16.80;;;15.67;;
1122;SDS011;548;48.778;9.252;2023-06-22T15:37:50;17.37;;;16.13;;
1122;SDS011;548;48.778;9.252;2023-06-22T15:40:17;17.93;;;16.40;;
1122;SDS011;548;48.778;9.252;2023-06-22T15:42:44;18.37;;;16.97;;
1122;SDS011;548;48.778;9.252;2023-06-22T15:45:12;16.67;;;15.43;;
1122;SDS011;548;48.778;9.252;2023-06-22T15:47:39;17.30;;;16.17;;
1122;SDS011;548;48.778;9.252;2023-06-22T15:50:07;18.43;;;16.80;;
1122;SDS011;548;48.778;9.252;2023-06-22T15:52:34;16.00;;;14.93;;
1122;SDS011;548;48.778;9.252;2023-06-22T15:55:01;17.97;;;16.73;;
1122;SDS011;548;48.778;9.252;2023-06-22T15:57:28;16.70;;;15.50;;
1122;SDS011;548;48.778;9.252;2023-06-22T15:59:55;15.87;;;14.80;;
1122;SDS011;548;48.778;9.252;2023-06-22T16:02:22;16.93;;;15.63;;
1122;SDS011;548;48.778;9.252;2023-06-22T16:04:49;16.53;;;15.50;;
1122;SDS011;548;48.778;9.252;2023-06-22T16:07:17;16.53;;;15.43;;
1122;SDS011;548;48.778;9.252;2023-06-22T16:09:43;16.63;;;15.47;;
1122;SDS011;548;48.778;9.252;2023-06-22T16:12:10;16.20;;;15.10;;
1122;SDS011;548;48.778;9.252;2023-06-22T16:14:37;17.77;;;16.27;;
1122;SDS011;548;48.778;9.252;2023-06-22T16:17:05;17.00;;;15.90;;
1122;SDS011;548;48.778;9.252;2023-06-22T16:19:32;16.37;;;15.40;;
1122;SDS011;548;48.778;9.252;2023-06-22T16:21:59;16.27;;;15.23;;
1122;SDS011;548;48.778;9.252;2023-06-22T16:24:27;16.10;;;15.00;;
1122;SDS011;548;48.778;9.252;2023-06-22T16:26:54;17.07;;;15.60;;
1122;SDS011;548;48.778;9.252;2023-06-22T16:29:20;18.70;;;17.00;;
1122;SDS011;548;48.778;9.252;2023-06-22T16:31:47;17.10;;;15.27;;
1122;SDS011;548;48.778;9.252;2023-06-22T16:34:14;15.90;;;15.10;;
1122;SDS011;548;48.778;9.252;2023-06-22T16:36:40;17.07;;;15.50;;
1122;SDS011;548;48.778;9.252;2023-06-22T16:39:07;16.83;;;15.53;;
1122;SDS011;548;48.778;9.252;2023-06-22T16:41:35;16.00;;;14.90;;
1122;SDS011;548;48.778;9.252;2023-06-22T16:44:02;15.63;;;14.70;;
1122;SDS011;548;48.778;9.252;2023-06-22T16:46:30;16.60;;;15.40;;
1122;SDS011;548;48.778;9.252;2023-06-22T16:48:57;16.67;;;15.50;;
1122;SDS011;548;48.778;9.252;2023-06-22T16:51:24;17.43;;;16.17;;
1122;SDS011;548;48.778;9.252;2023-06-22T16:53:52;16.73;;;15.53;;
1122;SDS011;548;48.778;9.252;2023-06-22T16:56:22;16.00;;;14.87;;
1122;SDS011;548;48.778;9.252;2023-06-22T16:58:52;16.90;;;15.60;;
1122;SDS011;548;48.778;9.252;2023-06-22T17:01:20;17.17;;;15.60;;
1122;SDS011;548;48.778;9.252;2023-06-22T17:03:52;17.77;;;16.43;;
1122;SDS011;548;48.778;9.252;2023-06-22T17:06:27;16.93;;;15.67;;
1122;SDS011;548;48.778;9.252;2023-06-22T17:08:54;15.73;;;14.70;;
1122;SDS011;548;48.778;9.252;2023-06-22T17:11:23;16.10;;;14.80;;
1122;SDS011;548;48.778;9.252;2023-06-22T17:13:51;15.87;;;14.37;;
1122;SDS011;548;48.778;9.252;2023-06-22T17:16:18;16.90;;;15.23;;
1122;SDS011;548;48.778;9.252;2023-06-22T17:18:45;16.03;;;14.83;;
1122;SDS011;548;48.778;9.252;2023-06-22T17:21:13;15.33;;;14.40;;
1122;SDS011;548;48.778;9.252;2023-06-22T17:23:47;16.47;;;15.10;;
1122;SDS011;548;48.778;9.252;2023-06-22T17:26:14;16.63;;;15.53;;
1122;SDS011;548;48.778;9.252;2023-06-22T17:28:47;17.73;;;16.23;;
1122;SDS011;548;48.778;9.252;2023-06-22T17:31:17;16.27;;;15.27;;
1122;SDS011;548;48.778;9.252;2023-06-22T17:33:45;18.30;;;16.63;;
1122;SDS011;548;48.778;9.252;2023-06-22T17:36:15;17.23;;;15.80;;
1122;SDS011;548;48.778;9.252;2023-06-22T17:38:41;15.67;;;14.63;;
1122;SDS011;548;48.778;9.252;2023-06-22T17:41:08;16.40;;;15.20;;
1122;SDS011;548;48.778;9.252;2023-06-22T17:43:44;16.30;;;15.20;;
1122;SDS011;548;48.778;9.252;2023-06-22T17:46:12;15.03;;;14.00;;
1122;SDS011;548;48.778;9.252;2023-06-22T17:48:43;15.20;;;14.30;;
1122;SDS011;548;48.778;9.252;2023-06-22T17:51:13;14.77;;;13.87;;
1122;SDS011;548;48.778;9.252;2023-06-22T17:53:46;14.87;;;13.97;;
1122;SDS011;548;48.778;9.252;2023-06-22T17:56:13;16.17;;;14.97;;
1122;SDS011;548;48.778;9.252;2023-06-22T17:58:49;15.60;;;14.03;;
1122;SDS011;548;48.778;9.252;2023-06-22T18:01:16;15.40;;;14.30;;
1122;SDS011;548;48.778;9.252;2023-06-22T18:03:51;15.53;;;14.20;;
1122;SDS011;548;48.778;9.252;2023-06-22T18:06:18;14.67;;;13.67;;
1122;SDS011;548;48.778;9.252;2023-06-22T18:08:47;14.70;;;13.80;;
1122;SDS011;548;48.778;9.252;2023-06-22T18:11:16;13.77;;;12.77;;
1122;SDS011;548;48.778;9.252;2023-06-22T18:13:42;15.17;;;14.17;;
1122;SDS011;548;48.778;9.252;2023-06-22T18:16:09;14.50;;;13.70;;
1122;SDS011;548;48.778;9.252;2023-06-22T18:18:36;15.23;;;13.90;;
1122;SDS011;548;48.778;9.252;2023-06-22T18:21:06;14.90;;;13.90;;
1122;SDS011;548;48.778;9.252;2023-06-22T18:23:33;13.90;;;13.10;;
1122;SDS011;548;48.778;9.252;2023-06-22T18:26:02;14.53;;;13.70;;
1122;SDS011;548;48.778;9.252;2023-06-22T18:28:29;14.70;;;13.53;;
1122;SDS011;548;48.778;9.252;2023-06-22T18:30:57;15.20;;;14.37;;
1122;SDS011;548;48.778;9.252;2023-06-22T18:33:24;13.80;;;12.60;;
1122;SDS011;548;48.778;9.252;2023-06-22T18:35:51;14.50;;;13.60;;
1122;SDS011;548;48.778;9.252;2023-06-22T18:38:20;14.40;;;13.30;;
1122;SDS011;548;48.778;9.252;2023-06-22T18:40:48;14.53;;;13.63;;
1122;SDS011;548;48.778;9.252;2023-06-22T18:43:19;14.43;;;13.17;;
1122;SDS011;548;48.778;9.252;2023-06-22T18:45:47;13.93;;;13.13;;
1122;SDS011;548;48.778;9.252;2023-06-22T18:48:14;15.40;;;14.40;;
1122;SDS011;548;48.778;9.252;2023-06-22T18:50:49;14.93;;;14.10;;
1122;SDS011;548;48.778;9.252;2023-06-22T18:53:17;13.73;;;12.93;;
1122;SDS011;548;48.778;9.252;2023-06-22T18:55:51;13.73;;;13.03;;
1122;SDS011;548;48.778;9.252;2023-06-22T18:58:36;14.20;;;13.30;;
1122;SDS011;548;48.778;9.252;2023-06-22T19:01:14;14.00;;;13.13;;
1122;SDS011;548;48.778;9.252;2023-06-22T19:03:41;13.77;;;12.83;;
1122;SDS011;548;48.778;9.252;2023-06-22T19:06:08;13.40;;;12.40;;
1122;SDS011;548;48.778;9.252;2023-06-22T19:11:40;13.93;;;12.87;;
1122;SDS011;548;48.778;9.252;2023-06-22T19:14:07;14.90;;;13.57;;
1122;SDS011;548;48.778;9.252;2023-06-22T19:16:34;12.80;;;11.90;;
1122;SDS011;548;48.778;9.252;2023-06-22T19:19:11;13.40;;;12.67;;
1122;SDS011;548;48.778;9.252;2023-06-22T19:21:38;13.63;;;12.70;;
1122;SDS011;548;48.778;9.252;2023-06-22T19:24:05;14.10;;;13.50;;
1122;SDS011;548;48.778;9.252;2023-06-22T19:26:33;13.30;;;12.40;;
1122;SDS011;548;48.778;9.252;2023-06-22T19:29:02;13.83;;;12.83;;
1122;SDS011;548;48.778;9.252;2023-06-22T19:31:42;13.60;;;12.90;;